Latest Weather Observations for Davis*

IDT60801

Issued at 3:05 pm EST Saturday 23 August 2014 (issued every 30 minutes, with the page automatically refreshed every 10 minutes)

About weather observations | Map of weather stations | Latest weather observations for ANT | Other Formats
Station Details ID: 300000 Name: DAVIS Lat: -68.57 Lon: 77.97 Height: 18.0 m
Data from the previous 72 hours. | See also: Recent months at Davis*
Date/Time
EST
Temp
°C
App
Temp
°C
Dew
Point
Rel
Hum
%
Delta-T
°C
Wind Press
QNH
hPa
Press
MSL
hPa
Rain
since 9 am
mm
Dir
 
Spd
km/h
Gust
km/h
Spd
kts
Gust
kts
23/03:00pm -19.0 -25.6 -24.1 64 - ESE 15 19 8 10 990.2 - -
23/02:30pm -18.4 -25.0 -24.0 61 - SE 15 17 8 9 990.6 - -
23/02:00pm -18.6 -25.2 -23.7 64 - SE 15 17 8 9 991.1 - -
23/01:30pm -18.2 -24.0 -23.5 63 - SE 11 13 6 7 991.2 - -
23/01:00pm -18.3 -23.7 -23.4 64 - ESE 9 13 5 7 991.2 991.6 -
23/12:30pm -17.9 -23.7 -23.0 64 - ESE 11 13 6 7 991.3 - -
23/12:00pm -17.5 -23.3 -22.8 63 - ESE 11 15 6 8 991.2 - -
23/11:30am -17.6 -23.7 -22.7 64 - SE 13 19 7 10 991.3 - -
23/11:00am -17.9 -23.3 -22.3 68 - E 9 11 5 6 991.4 - -
23/10:30am -17.4 -22.4 -21.7 69 - E 7 11 4 6 991.4 - -
23/10:00am -18.8 -24.6 -22.4 73 - E 11 15 6 8 991.2 991.6 -
23/09:30am -18.2 -23.6 -22.0 72 - SE 9 15 5 8 991.1 - -
23/09:00am -17.2 -22.1 -21.0 72 - E 7 9 4 5 990.6 - -
23/08:30am -17.4 -22.2 -21.2 72 - ENE 6 11 3 6 990.8 - -
23/08:00am -17.9 -22.7 -21.2 75 - ESE 6 9 3 5 990.7 - -
23/07:30am -18.3 -23.3 -21.8 74 - E 7 7 4 4 990.5 - -
23/07:00am -17.4 -23.1 -20.6 76 - ESE 11 13 6 7 990.4 990.8 -
23/06:30am -16.8 -22.5 -20.0 76 - SE 11 13 6 7 990.3 - -
23/06:00am -16.6 -21.9 -19.4 79 - SSE 9 11 5 6 990.3 - -
23/05:30am -16.8 -21.7 -19.6 79 - S 7 9 4 5 990.1 - -
23/05:00am -16.2 -21.5 -19.0 79 - SSE 9 11 5 6 989.8 - -
23/04:30am -16.0 -21.6 -18.6 80 - S 11 13 6 7 989.5 - -
23/04:00am -16.4 -22.0 -18.6 83 - S 11 17 6 9 989.6 990.0 -
23/03:30am -16.2 -22.6 -18.3 84 - S 15 19 8 10 989.5 - -
23/03:00am -16.2 -22.2 -18.1 85 - S 13 17 7 9 989.3 - -
23/02:30am -16.2 -21.8 -18.0 86 - S 11 19 6 10 989.2 - -
23/02:00am -16.7 -21.9 -18.6 85 - S 9 13 5 7 989.1 - -
23/01:30am -16.9 -22.1 -18.7 86 - SSE 9 11 5 6 989.0 - -
23/01:00am -17.0 -22.6 -18.9 85 - SSE 11 13 6 7 988.6 989.0 -
23/12:30am -17.1 -22.4 -18.9 86 - SSE 9 11 5 6 988.3 - -
23/12:00am -17.2 -22.8 -19.0 86 - S 11 13 6 7 988.0 - -
 
Date/Time
EST
Temp
°C
App
Temp
°C
Dew
Point
Rel
Hum
%
Delta-T
°C
Wind Press
QNH
hPa
Press
MSL
hPa
Rain
since 9 am
mm
Dir
 
Spd
km/h
Gust
km/h
Spd
kts
Gust
kts
22/11:30pm -17.8 -23.8 -19.7 85 - SSE 13 17 7 9 987.8 - -
22/11:00pm -18.0 -24.4 -19.9 85 - S 15 20 8 11 987.6 - -
22/10:30pm -18.2 -24.3 -20.1 85 - S 13 17 7 9 987.5 - -
22/10:00pm -18.6 -25.4 -20.6 84 - S 17 24 9 13 987.3 987.7 -
22/09:30pm -18.5 -25.3 -20.4 85 - S 17 24 9 13 987.1 - -
22/09:00pm -18.6 -25.8 -20.6 84 - S 19 26 10 14 986.8 - -
22/08:30pm -18.7 -25.9 -20.7 84 - S 19 28 10 15 986.6 - -
22/08:00pm -18.7 -25.2 -21.0 82 - S 15 24 8 13 986.4 - -
22/07:30pm -18.9 -25.0 -21.3 81 - SSE 13 19 7 10 986.4 - -
22/07:00pm -19.1 -26.5 -21.7 80 - S 20 28 11 15 986.1 986.4 -
22/06:30pm -19.2 -26.5 -21.8 80 - S 19 24 10 13 985.9 - -
22/06:00pm -18.8 -23.8 -21.4 80 - SSE 7 11 4 6 985.6 - -
22/05:30pm -18.3 -23.2 -21.0 79 - SSE 7 9 4 5 985.6 - -
22/05:00pm -18.3 -24.0 -21.0 79 - NE 11 19 6 10 985.4 - -
22/04:30pm -18.5 -24.2 -21.4 78 - ENE 11 15 6 8 985.4 - -
22/04:00pm -18.8 -24.9 -22.0 76 - ENE 13 20 7 11 985.2 985.5 -
22/03:30pm -19.0 -25.9 -22.1 76 - NNE 17 20 9 11 985.2 - -
22/03:00pm -19.4 -26.7 -22.4 77 - NE 19 24 10 13 985.1 - -
22/02:30pm -19.8 -27.1 -22.6 78 - NE 19 26 10 14 985.0 - -
22/02:00pm -20.1 -28.3 -22.9 78 - NE 24 30 13 16 984.7 - -
22/01:30pm -20.2 -28.8 -22.9 79 - NE 26 35 14 19 984.1 - -
22/01:00pm -20.5 -29.9 -23.2 79 - NNE 30 44 16 24 983.7 984.0 -
22/12:30pm -20.6 -30.6 -23.1 80 - NNE 33 43 18 23 983.2 - -
22/12:00pm -20.5 -31.6 -23.0 80 - NNE 39 48 21 26 982.9 - -
22/11:30am -20.6 -32.5 -23.0 81 - NNE 43 54 23 29 982.7 - -
22/11:00am -20.5 -32.9 -22.9 81 - NNE 46 56 25 30 982.6 - -
22/10:30am -20.5 -32.9 -22.9 81 - NNE 46 57 25 31 982.2 - -
22/10:00am -20.6 -33.4 -22.9 82 - NNE 48 59 26 32 982.2 982.5 -
22/09:30am -20.7 -33.1 -23.1 81 - NNE 46 56 25 30 982.1 - -
22/09:00am -20.9 -33.7 -23.3 81 - NNE 48 61 26 33 982.0 - -
22/08:30am -21.0 -33.1 -23.4 81 - NNE 44 54 24 29 982.3 - -
22/08:00am -20.9 -34.1 -23.1 82 - NNE 50 59 27 32 982.1 - -
22/07:30am -20.9 -32.8 -23.4 80 - NNE 43 52 23 28 982.1 - -
22/07:00am -21.1 -32.6 -23.6 80 - NNE 41 50 22 27 982.2 982.5 -
22/06:30am -21.4 -33.3 -23.9 80 - NNE 43 52 23 28 982.3 - -
22/06:00am -21.5 -32.6 -24.1 79 - N 39 46 21 25 982.3 - -
22/05:30am -21.6 -33.1 -24.2 79 - N 41 48 22 26 982.4 - -
22/05:00am -21.6 -32.7 -24.4 78 - NNE 39 46 21 25 982.5 - -
22/04:45am -22.0 -31.0 -24.6 79 - N 28 35 15 19 982.8 - -
22/04:30am -23.2 -27.7 -25.8 79 - WNW 4 17 2 9 983.2 - -
22/04:00am -23.9 -29.0 -26.5 79 - WSW 7 9 4 5 983.5 983.8 -
22/03:30am -24.0 -29.5 -26.7 78 - WSW 9 11 5 6 983.6 - -
22/03:00am -23.7 -28.8 -26.3 79 - W 7 9 4 5 983.8 - -
22/02:30am -23.8 -29.3 -26.5 78 - WNW 9 15 5 8 983.9 - -
22/02:00am -22.8 -29.8 -25.6 78 - N 17 24 9 13 984.1 - -
22/01:49am -22.6 -30.9 -25.5 77 - N 24 30 13 16 984.0 - -
22/01:30am -21.7 -32.4 -24.3 79 - NNE 37 46 20 25 983.9 - -
22/01:00am -21.9 -33.8 -24.4 80 - NNE 43 54 23 29 984.0 984.3 -
22/12:30am -22.0 -33.9 -24.6 79 - NNE 43 54 23 29 984.1 - -
22/12:00am -22.0 -34.5 -24.6 79 - NNE 46 56 25 30 983.8 - -
 
Date/Time
EST
Temp
°C
App
Temp
°C
Dew
Point
Rel
Hum
%
Delta-T
°C
Wind Press
QNH
hPa
Press
MSL
hPa
Rain
since 9 am
mm
Dir
 
Spd
km/h
Gust
km/h
Spd
kts
Gust
kts
21/11:30pm -21.9 -34.0 -24.7 78 - NNE 44 54 24 29 984.0 - -
21/11:00pm -21.7 -33.2 -24.5 78 - NNE 41 50 22 27 984.2 - -
21/10:30pm -21.9 -34.0 -24.8 77 - NNE 44 54 24 29 984.2 - -
21/10:00pm -22.1 -33.6 -24.9 78 - NNE 41 48 22 26 984.4 984.7 -
21/09:30pm -22.2 -33.3 -25.0 78 - N 39 50 21 27 984.8 - -
21/09:00pm -22.2 -34.1 -25.1 77 - N 43 50 23 27 984.5 - -
21/08:30pm -22.1 -33.6 -24.9 78 - NNE 41 52 22 28 984.8 - -
21/08:00pm -21.8 -33.7 -24.7 77 - NNE 43 50 23 27 984.8 - -
21/07:30pm -21.7 -33.6 -24.8 76 - N 43 52 23 28 985.2 - -
21/07:00pm -21.4 -33.5 -24.6 75 - NNE 44 52 24 28 985.4 985.7 -
21/06:30pm -21.3 -32.1 -24.8 73 - N 37 46 20 25 985.8 - -
21/06:00pm -21.3 -32.8 -24.8 73 - N 41 48 22 26 985.7 - -
21/05:30pm -21.4 -32.5 -24.8 74 - NNE 39 46 21 25 986.0 - -
21/05:00pm -21.2 -33.1 -24.9 72 - NNE 43 50 23 27 986.0 - -
21/04:30pm -21.2 -32.3 -24.9 72 - NNE 39 48 21 26 986.2 - -
21/04:00pm -21.3 -31.7 -24.8 73 - NNE 35 43 19 23 986.4 986.7 -
21/03:30pm -21.3 -32.1 -24.7 74 - NE 37 44 20 24 986.3 - -
21/03:00pm -21.1 -32.3 -25.3 69 - NNE 39 50 21 27 986.5 - -
21/02:30pm -20.8 -30.6 -25.0 69 - NNE 32 41 17 22 986.7 - -
21/02:00pm -21.0 -31.8 -25.2 69 - NNE 37 46 20 25 986.6 - -
21/01:30pm -21.2 -31.6 -25.5 68 - NNE 35 43 19 23 986.7 - -
21/01:00pm -21.3 -31.1 -25.3 70 - NNE 32 41 17 22 986.9 987.3 -
21/12:30pm -21.1 -30.2 -25.3 69 - NNE 28 33 15 18 987.0 - -
21/12:00pm -21.3 -31.1 -25.6 68 - NNE 32 37 17 20 987.1 - -
21/11:30am -21.4 -30.5 -25.9 67 - NNE 28 33 15 18 987.2 - -
21/11:00am -21.4 -29.7 -26.0 66 - NNE 24 30 13 16 987.3 - -
21/10:30am -21.9 -28.9 -26.0 69 - NNE 17 20 9 11 987.8 - -
21/10:00am -22.2 -29.2 -26.0 71 - NE 17 19 9 10 988.0 988.4 -
21/09:30am -22.0 -28.6 -25.5 73 - NE 15 15 8 8 988.3 - -
21/09:00am -22.6 -29.2 -25.4 78 - ENE 15 17 8 9 988.4 - -
21/08:30am -23.4 -29.2 -26.1 78 - ENE 11 11 6 6 988.4 - -
21/08:00am -23.6 -28.7 -26.3 78 - ENE 7 9 4 5 988.8 - -
21/07:30am -23.6 -29.1 -26.5 77 - ENE 9 11 5 6 989.0 - -
21/07:00am -23.7 -28.8 -26.7 76 - E 7 9 4 5 989.0 989.4 -
21/06:30am -23.7 -28.6 -26.7 76 - ESE 6 7 3 4 989.3 - -
21/06:00am -23.8 -28.9 -26.8 76 - ESE 7 9 4 5 989.3 - -
21/05:30am -23.6 -28.7 -26.8 75 - SE 7 9 4 5 989.4 - -
21/05:00am -23.6 -28.5 -26.8 75 - SSE 6 7 3 4 989.5 - -
21/04:30am -23.6 -28.5 -27.1 73 - SSW 6 6 3 3 989.5 - -
21/04:00am -23.6 -27.4 -27.2 72 - CALM 0 7 0 4 989.8 990.2 -
21/03:30am -24.0 -27.8 -28.0 69 - CALM 0 0 0 0 989.7 - -
21/03:00am -24.0 -28.9 -28.2 68 - S 6 7 3 4 989.8 - -
21/02:30am -24.2 -29.1 -28.7 66 - S 6 7 3 4 990.0 - -
21/02:00am -24.2 -29.1 -28.7 66 - S 6 7 3 4 990.1 - -
21/01:30am -24.3 -28.9 -28.8 66 - SSW 4 6 2 3 990.2 - -
21/01:00am -24.3 -29.2 -28.5 68 - SW 6 7 3 4 990.3 990.7 -
21/12:30am -24.3 -28.9 -29.0 65 - S 4 6 2 3 990.6 - -
21/12:00am -24.4 -30.3 -29.2 64 - SE 11 13 6 7 990.7 - -
 
Date/Time
EST
Temp
°C
App
Temp
°C
Dew
Point
Rel
Hum
%
Delta-T
°C
Wind Press
QNH
hPa
Press
MSL
hPa
Rain
since 9 am
mm
Dir
 
Spd
km/h
Gust
km/h
Spd
kts
Gust
kts
20/11:30pm -24.3 -29.8 -28.6 68 - SSE 9 11 5 6 990.7 - -
20/11:00pm -24.5 -30.4 -29.8 61 - SE 11 13 6 7 990.9 - -
20/10:30pm -24.4 -30.3 -29.6 62 - SSE 11 13 6 7 991.0 - -
20/10:00pm -24.5 -29.5 -29.3 64 - S 6 9 3 5 991.2 991.6 -
20/09:30pm -24.3 -30.2 -29.0 65 - SSE 11 13 6 7 991.4 - -
20/09:00pm -24.5 -30.4 -29.0 66 - SSE 11 13 6 7 991.1 - -
20/08:30pm -24.4 -29.9 -29.6 62 - SSE 9 11 5 6 991.4 - -
20/08:00pm -24.0 -30.3 -28.5 66 - S 13 17 7 9 991.4 - -
20/07:30pm -24.0 -30.3 -28.7 65 - S 13 19 7 10 991.6 - -
20/07:00pm -23.6 -30.3 -28.5 64 - S 15 20 8 11 991.7 992.1 -
20/06:30pm -23.8 -30.5 -29.0 62 - S 15 20 8 11 991.7 - -

Other Formats:

Comma delimited format used in spreadsheet applications
http://www.bom.gov.au/fwo/IDT60803/IDT60803.89571.axf

JavaScript Object Notation format (JSON) in row-major order
http://www.bom.gov.au/fwo/IDT60803/IDT60803.89571.json